Hovedside
METAR-TAF:

METAR-TAF

Lufthavner :

Tasjkent internasjonale lufthavn

Tasjkent, Usbekistan

breddegrad: 41-16N, lengdegrad: 069-16E, høyde over havet: 489 m

Gjeldene værobservasjon

Denne rapporten ble laget for 15 minutter siden, klokken 04:00 UTC
Vind 6 kt fra Øst-nordøst
Temperatur 15°C
Luftfuktighet 39%
Trykk 1019 hPa
Sikt 10 km eller mer
ingen skyer under 1500 m og ingen bygeskyer

METAR: UTTT 240400Z 06006KT CAVOK 15/01 Q1019 R26L/CLRD70 NOSIG

Tid: 09:15 (04:15 UTC)

Varsel

Denne rapporten ble laget for 5 timer og 15 minutter siden, klokken 23:00 UTC
Varsel gyldig fra 24. klokken 00 UTC til 24. klokken 24 UTC
Vind 10 kt fra Øst-nordøst
Sikt: 7000 m
Midlertidig
fra 24. klokken 06 UTC til 24. klokken 16 UTC
Vind 12 kt fra Nordvest

TAF: UTTT 232300Z 2400/2424 07010KT 7000 NSC TEMPO 2406/2416 32012KT

Værobservasjoner og værvarsel for over 4000 flyplasser (METAR- og TAF-rapporter).

Tilgjengelige stasjoner er representert av de røde og gule prikkene på kartet.

Hold musepekeren over prikken for å se navnet på stasjonen.

Klikk så for å se værobservasjoner og -varsler.

For å forandre kartet kan du klikke på den grønne knappen med svart kryss for å zoome inn, på den grønne knappen med strek for å zoome ut, eller på de grønne pilene for å se tilstøtende kart.


METAR-TAF: